Time;durP1;ratioP1;P1;durP2;ratioP2;P2;SDS_P1;SDS_P2;PMS_P1;PMS_P2;Temp;Humidity;BMP_temperature;BMP_pressure;BME280_temperature;BME280_humidity;BME280_pressure;Samples;Min_cycle;Max_cycle;Signal;HPM_P1;HPM_P2
2022/05/05 00:01:40;;;;;;;7.47;5.47;;;;;;;14.19;61.83;100911.00;5047812;28;20069;-67
2022/05/05 00:04:08;;;;;;;6.75;5.60;;;;;;;14.15;62.07;100914.81;5041266;28;20216;-66
2022/05/05 00:06:35;;;;;;;9.40;5.50;;;;;;;14.11;62.24;100914.19;5046764;28;20057;-66
2022/05/05 00:09:03;;;;;;;7.50;5.15;;;;;;;14.08;62.47;100911.72;5047746;28;20079;-66
2022/05/05 00:14:31;;;;;;;6.15;5.30;;;;;;;14.10;62.25;100909.84;5043945;28;20056;-66
2022/05/05 00:17:03;;;;;;;8.25;5.95;;;;;;;14.10;62.33;100904.53;5044007;28;20382;-67
2022/05/05 00:19:34;;;;;;;9.98;5.53;;;;;;;14.09;62.32;100908.13;5050992;28;20045;-67
2022/05/05 00:22:03;;;;;;;8.00;5.53;;;;;;;14.08;62.67;100903.78;5046120;28;20056;-67
2022/05/05 00:24:30;;;;;;;6.57;5.47;;;;;;;14.10;62.57;100903.69;5052411;28;20052;-66
2022/05/05 00:26:57;;;;;;;11.10;5.55;;;;;;;14.04;63.12;100907.59;5047409;28;20056;-66
2022/05/05 00:29:25;;;;;;;8.07;6.20;;;;;;;14.02;62.77;100900.72;5048003;28;20049;-67
2022/05/05 00:31:52;;;;;;;7.60;5.18;;;;;;;14.03;63.06;100887.38;5041523;28;20041;-66
2022/05/05 00:34:19;;;;;;;9.32;5.43;;;;;;;14.08;63.07;100885.25;5049328;28;20405;-66
2022/05/05 00:36:46;;;;;;;7.35;4.80;;;;;;;14.10;63.04;100899.25;5046836;28;20057;-66
2022/05/05 00:39:13;;;;;;;6.38;5.25;;;;;;;14.11;62.62;100895.63;5040985;28;20494;-66
2022/05/05 00:41:45;;;;;;;10.45;5.82;;;;;;;14.13;61.64;100898.19;5049669;28;20048;-66
2022/05/05 00:44:13;;;;;;;6.70;5.30;;;;;;;14.14;62.04;100899.88;5046257;28;20334;-66
2022/05/05 00:46:46;;;;;;;7.72;5.00;;;;;;;14.11;62.34;100903.59;5023067;28;20055;-67
2022/05/05 00:49:14;;;;;;;6.85;5.70;;;;;;;14.06;62.55;100897.75;5047218;28;20056;-67
2022/05/05 00:51:41;;;;;;;6.38;5.22;;;;;;;14.07;63.03;100893.31;5047400;28;20061;-67
2022/05/05 00:54:08;;;;;;;7.95;5.80;;;;;;;14.12;62.97;100893.84;5046450;28;20416;-66
2022/05/05 00:56:36;;;;;;;6.55;5.32;;;;;;;14.10;62.78;100893.13;5042397;28;20044;-66
2022/05/05 00:59:05;;;;;;;8.32;5.38;;;;;;;14.03;62.94;100894.47;5045730;28;20064;-66
2022/05/05 01:01:33;;;;;;;9.43;5.97;;;;;;;13.98;62.90;100905.38;5048564;28;20524;-66
2022/05/05 01:04:01;;;;;;;7.35;5.65;;;;;;;13.97;63.35;100908.16;5047622;28;20060;-67
2022/05/05 01:06:29;;;;;;;8.63;5.15;;;;;;;13.98;63.02;100912.47;5031616;28;20049;-66
2022/05/05 01:08:56;;;;;;;7.15;5.25;;;;;;;13.93;63.42;100911.00;5050520;28;20059;-66
2022/05/05 01:11:24;;;;;;;6.88;5.22;;;;;;;13.87;64.60;100924.66;5027738;28;20078;-66
2022/05/05 01:13:51;;;;;;;7.80;5.75;;;;;;;13.88;64.35;100944.03;5045231;28;20053;-67
2022/05/05 01:16:21;;;;;;;8.85;6.72;;;;;;;13.75;65.57;100945.78;5049701;28;20053;-65
2022/05/05 01:18:55;;;;;;;9.20;6.88;;;;;;;13.73;68.00;100939.75;5026498;28;20094;-67
2022/05/05 01:21:23;;;;;;;8.52;6.63;;;;;;;13.72;69.68;100946.00;5048918;28;20064;-66
2022/05/05 01:23:50;;;;;;;8.40;6.85;;;;;;;13.53;72.51;100941.94;5051063;28;20568;-66
2022/05/05 01:29:04;;;;;;;;;;;;;;;13.48;73.88;100930.81;5047774;28;20505;-65
2022/05/05 01:31:31;;;;;;;9.05;6.68;;;;;;;13.45;73.67;100938.09;5031082;28;19927;-67
2022/05/05 01:33:58;;;;;;;10.30;7.25;;;;;;;13.44;73.98;100931.97;5039623;28;20064;-66
2022/05/05 01:36:25;;;;;;;8.05;6.18;;;;;;;13.39;74.49;100932.25;5045559;28;20056;-67
2022/05/05 01:38:52;;;;;;;7.43;6.38;;;;;;;13.35;75.48;100917.53;5049296;28;20053;-68
2022/05/05 01:41:21;;;;;;;10.63;6.68;;;;;;;13.38;74.88;100911.22;5054888;28;20059;-67
2022/05/05 01:43:48;;;;;;;7.13;5.43;;;;;;;13.36;75.48;100921.88;5045171;28;20513;-67
2022/05/05 01:46:15;;;;;;;11.18;6.00;;;;;;;13.34;75.34;100913.22;5048648;28;20428;-66
2022/05/05 01:48:43;;;;;;;11.98;5.82;;;;;;;13.31;75.46;100921.34;5044894;28;20052;-67
2022/05/05 01:51:10;;;;;;;7.32;4.80;;;;;;;13.25;76.01;100926.19;5049405;28;20088;-66
2022/05/05 01:53:37;;;;;;;9.57;6.28;;;;;;;13.12;77.03;100937.53;5053201;28;20061;-66
2022/05/05 01:56:11;;;;;;;9.07;5.80;;;;;;;13.05;76.94;100936.22;5048274;28;20501;-67
2022/05/05 01:58:44;;;;;;;10.35;6.25;;;;;;;13.11;77.00;100940.28;5053449;28;20808;-66
2022/05/05 02:01:11;;;;;;;6.53;5.30;;;;;;;13.03;77.98;100947.84;5053743;28;20056;-67
2022/05/05 02:03:39;;;;;;;9.77;5.57;;;;;;;12.95;78.96;100945.69;5051490;28;20925;-65
2022/05/05 02:06:07;;;;;;;10.18;5.78;;;;;;;12.89;79.71;100940.78;5047750;28;20049;-66
2022/05/05 02:08:36;;;;;;;12.02;5.93;;;;;;;12.92;79.81;100959.94;5051282;28;20136;-65
2022/05/05 02:11:03;;;;;;;10.43;5.22;;;;;;;12.86;79.99;100960.31;5061852;28;20060;-67
2022/05/05 02:13:33;;;;;;;10.23;5.97;;;;;;;12.79;81.01;100959.03;5049237;28;20049;-65
2022/05/05 02:16:00;;;;;;;7.75;5.40;;;;;;;12.86;80.46;100962.13;5048093;28;20068;-65
2022/05/05 02:18:27;;;;;;;8.13;4.57;;;;;;;12.84;80.61;100969.31;5049103;28;20060;-64
2022/05/05 02:20:54;;;;;;;12.48;5.20;;;;;;;12.76;81.00;100969.78;5049155;28;20052;-65
2022/05/05 02:23:22;;;;;;;10.45;5.85;;;;;;;12.72;81.29;100968.25;5054262;28;20064;-66
2022/05/05 02:25:50;;;;;;;12.07;5.50;;;;;;;12.76;81.69;100966.28;5042547;28;20053;-66
2022/05/05 02:28:17;;;;;;;7.70;5.30;;;;;;;12.75;82.07;100961.97;5028895;28;20064;-66
2022/05/05 02:30:44;;;;;;;8.40;5.38;;;;;;;12.74;82.14;100969.00;5050545;28;20879;-66
2022/05/05 02:33:11;;;;;;;9.73;5.25;;;;;;;12.68;82.65;100982.59;5050256;28;20417;-66
2022/05/05 02:35:38;;;;;;;11.23;4.88;;;;;;;12.67;83.50;100988.84;5029536;28;20045;-66
2022/05/05 02:40:52;;;;;;;;;;;;;;;12.61;83.04;100991.88;5048843;28;20057;-66
2022/05/05 02:43:19;;;;;;;9.63;5.80;;;;;;;12.57;82.95;100990.34;5052788;28;20331;-66
2022/05/05 02:45:46;;;;;;;7.70;5.38;;;;;;;12.61;83.47;100999.78;5052514;28;20414;-66
2022/05/05 02:48:14;;;;;;;13.13;5.65;;;;;;;12.54;84.21;100998.47;5048556;28;20421;-65
2022/05/05 02:50:41;;;;;;;7.75;5.57;;;;;;;12.51;84.26;100999.47;5046753;28;20296;-67
2022/05/05 02:55:54;;;;;;;9.27;6.07;;;;;;;12.40;84.97;101001.94;5025949;28;20516;-66
2022/05/05 02:58:21;;;;;;;12.20;6.13;;;;;;;12.40;85.42;101002.78;5048723;28;20068;-66
2022/05/05 03:00:48;;;;;;;8.93;5.38;;;;;;;12.38;85.85;101009.97;5050370;28;20056;-65
2022/05/05 03:03:15;;;;;;;14.63;5.57;;;;;;;12.42;85.64;101013.25;5036917;28;20044;-65
2022/05/05 03:05:43;;;;;;;11.90;6.35;;;;;;;12.41;85.90;101007.13;5044941;28;20169;-66
2022/05/05 03:08:10;;;;;;;18.05;7.15;;;;;;;12.35;86.01;101011.94;5016744;28;20048;-66
2022/05/05 03:10:37;;;;;;;8.32;6.05;;;;;;;12.33;86.34;101009.38;5052750;28;20064;-66
2022/05/05 03:13:04;;;;;;;13.40;6.10;;;;;;;12.36;86.56;101016.25;5049907;28;20181;-66
2022/05/05 03:15:32;;;;;;;13.52;6.97;;;;;;;12.36;87.26;101019.75;5056477;28;20420;-66
2022/05/05 03:17:59;;;;;;;12.60;6.68;;;;;;;12.33;87.18;101029.63;5029820;28;20049;-66
2022/05/05 03:20:26;;;;;;;14.27;6.53;;;;;;;12.28;88.06;101032.56;5045175;28;20563;-66
2022/05/05 03:22:53;;;;;;;9.23;6.57;;;;;;;12.24;88.41;101031.03;5038458;28;20057;-66
2022/05/05 03:25:20;;;;;;;10.60;6.45;;;;;;;12.29;88.58;101029.00;5031555;28;20052;-66
2022/05/05 03:27:49;;;;;;;15.25;6.47;;;;;;;12.25;88.74;101029.25;5053633;28;20053;-66
2022/05/05 03:30:16;;;;;;;11.27;6.85;;;;;;;12.20;89.10;101029.50;5048853;28;20041;-67
2022/05/05 03:32:43;;;;;;;8.82;6.05;;;;;;;12.23;90.10;101033.78;5045008;28;20060;-66
2022/05/05 03:35:11;;;;;;;15.63;8.18;;;;;;;12.22;91.97;101040.00;5049169;28;20064;-66
2022/05/05 03:37:38;;;;;;;12.07;7.15;;;;;;;12.22;92.41;101043.47;5048896;28;20049;-65
2022/05/05 03:40:05;;;;;;;17.13;7.57;;;;;;;12.22;94.10;101040.84;5054454;28;20044;-66
2022/05/05 03:42:32;;;;;;;12.82;7.22;;;;;;;12.17;94.78;101037.63;5025488;28;20135;-66
2022/05/05 03:45:00;;;;;;;15.73;7.68;;;;;;;12.19;94.90;101040.16;5042630;28;20044;-66
2022/05/05 03:47:27;;;;;;;13.35;7.10;;;;;;;12.16;95.20;101041.22;5050879;28;20059;-67
2022/05/05 03:49:54;;;;;;;14.70;8.02;;;;;;;12.12;95.92;101037.06;5053768;28;20050;-66
2022/05/05 03:52:22;;;;;;;12.98;8.00;;;;;;;12.07;96.95;101034.69;5053581;28;20067;-65
2022/05/05 03:54:49;;;;;;;15.05;7.95;;;;;;;11.98;98.36;101031.72;5045327;28;20060;-65
2022/05/05 03:57:17;;;;;;;10.05;8.07;;;;;;;11.90;98.68;101033.03;5043259;28;20057;-66
2022/05/05 03:59:44;;;;;;;17.10;8.63;;;;;;;11.88;99.30;101044.59;5044830;28;20057;-66
2022/05/05 04:02:11;;;;;;;14.95;8.45;;;;;;;11.95;99.45;101042.47;5047178;28;20059;-65
2022/05/05 04:04:38;;;;;;;13.75;8.60;;;;;;;11.95;99.72;101042.47;5050473;28;20060;-66
2022/05/05 04:07:05;;;;;;;14.13;8.02;;;;;;;11.96;99.20;101034.44;5047672;28;20040;-67
2022/05/05 04:09:32;;;;;;;13.45;8.50;;;;;;;11.96;99.25;101036.25;5046931;28;20574;-66
2022/05/05 04:12:00;;;;;;;15.90;8.15;;;;;;;12.00;99.25;101033.34;5028508;28;20053;-65
2022/05/05 04:14:27;;;;;;;10.93;8.07;;;;;;;12.06;98.70;101030.31;5045296;28;20049;-67
2022/05/05 04:16:54;;;;;;;12.00;8.52;;;;;;;12.01;98.83;101032.38;5032090;28;20057;-66
2022/05/05 04:19:21;;;;;;;11.55;7.97;;;;;;;12.01;99.17;101021.00;5045646;28;20520;-66
2022/05/05 04:21:48;;;;;;;15.00;8.60;;;;;;;12.02;99.17;101020.91;5048132;28;20049;-66
2022/05/05 04:24:15;;;;;;;17.23;9.30;;;;;;;12.01;98.96;101026.25;5048506;28;20413;-65
2022/05/05 04:26:44;;;;;;;13.23;8.75;;;;;;;11.98;98.39;101022.03;5049158;28;20575;-67
2022/05/05 04:29:12;;;;;;;11.25;8.18;;;;;;;11.99;98.03;101028.16;5029172;28;20053;-66
2022/05/05 04:31:40;;;;;;;15.73;8.73;;;;;;;11.82;99.10;101029.97;5045262;28;20049;-65
2022/05/05 04:34:08;;;;;;;18.90;9.15;;;;;;;11.86;99.21;101026.22;5048127;28;20049;-65
2022/05/05 04:36:36;;;;;;;12.25;8.52;;;;;;;11.87;99.01;101032.34;5049453;28;20053;-66
2022/05/05 04:39:04;;;;;;;17.20;8.65;;;;;;;11.93;98.42;101025.84;5013046;28;21985;-66
2022/05/05 04:41:32;;;;;;;24.92;10.15;;;;;;;11.95;98.67;101037.19;5043154;28;20056;-59
2022/05/05 04:44:17;;;;;;;21.15;10.20;;;;;;;11.90;98.52;101038.31;5042531;28;20057;-66
2022/05/05 04:46:50;;;;;;;16.00;9.60;;;;;;;11.96;98.42;101045.00;5013249;28;20033;-65
2022/05/05 04:49:18;;;;;;;18.38;10.15;;;;;;;11.94;99.03;101052.19;5045101;28;20508;-65
2022/05/05 04:51:45;;;;;;;15.35;8.95;;;;;;;11.96;99.33;101055.56;5047304;28;20463;-66
2022/05/05 04:54:12;;;;;;;15.10;9.95;;;;;;;11.96;98.37;101058.19;5045361;28;20151;-65
2022/05/05 04:56:39;;;;;;;12.35;8.85;;;;;;;12.02;98.25;101065.78;5055659;28;20060;-66
2022/05/05 04:59:06;;;;;;;10.93;8.20;;;;;;;12.08;97.94;101069.84;5046806;28;20055;-67
2022/05/05 05:01:33;;;;;;;17.88;9.50;;;;;;;12.12;97.40;101077.50;5048638;28;20064;-68
2022/05/05 05:04:02;;;;;;;14.80;8.80;;;;;;;12.20;98.33;101076.19;5047135;28;20059;-66
2022/05/05 05:06:29;;;;;;;15.75;8.65;;;;;;;12.23;97.47;101079.50;5044492;28;20060;-66
2022/05/05 05:08:56;;;;;;;17.13;9.18;;;;;;;12.25;96.73;101082.91;5048644;28;20053;-66
2022/05/05 05:11:24;;;;;;;11.90;7.95;;;;;;;12.32;95.92;101078.09;5034552;28;20131;-66
2022/05/05 05:13:51;;;;;;;14.77;8.43;;;;;;;12.40;96.33;101086.44;5049069;28;20508;-66
2022/05/05 05:16:18;;;;;;;14.38;8.93;;;;;;;12.44;96.15;101085.31;5057542;28;20056;-66
2022/05/05 05:19:08;;;;;;;10.35;8.05;;;;;;;12.49;94.71;101092.97;5044817;28;20042;-65
2022/05/05 05:21:41;;;;;;;14.00;8.27;;;;;;;12.53;93.76;101095.31;5049885;28;20064;-66
2022/05/05 05:24:08;;;;;;;15.35;7.57;;;;;;;12.70;93.32;101096.97;5051540;28;20148;-65
2022/05/05 05:26:35;;;;;;;17.08;8.60;;;;;;;12.70;92.75;101098.72;5031520;28;20041;-65
2022/05/05 05:29:02;;;;;;;18.08;8.57;;;;;;;12.68;92.61;101102.31;5045886;28;20052;-65
2022/05/05 05:31:30;;;;;;;14.68;8.60;;;;;;;12.71;92.40;101113.66;5053343;28;20064;-65
2022/05/05 05:33:57;;;;;;;12.85;8.85;;;;;;;12.70;92.44;101118.09;5044018;28;20055;-66
2022/05/05 05:36:24;;;;;;;14.02;8.23;;;;;;;12.76;93.18;101130.09;5049426;28;20550;-65
2022/05/05 05:38:52;;;;;;;12.77;8.55;;;;;;;12.79;91.57;101124.59;5035240;28;20060;-65
2022/05/05 05:41:19;;;;;;;16.25;9.05;;;;;;;12.78;91.35;101122.91;5039842;28;20060;-66
2022/05/05 05:43:46;;;;;;;20.98;9.95;;;;;;;12.77;91.83;101126.50;5043860;28;20054;-66
2022/05/05 05:46:13;;;;;;;14.15;8.85;;;;;;;12.85;91.81;101119.81;5050378;28;20059;-65
2022/05/05 05:48:41;;;;;;;12.18;8.07;;;;;;;12.95;91.61;101135.09;5054926;28;20056;-66
2022/05/05 05:51:08;;;;;;;14.02;8.27;;;;;;;13.05;90.75;101136.22;5053471;28;20060;-66
2022/05/05 05:53:35;;;;;;;16.67;9.18;;;;;;;13.06;90.08;101135.31;5047629;28;20037;-66
2022/05/05 05:56:02;;;;;;;14.27;8.25;;;;;;;13.10;90.83;101135.03;5053822;28;20064;-65
2022/05/05 05:58:29;;;;;;;17.05;8.38;;;;;;;13.25;89.41;101137.69;5026169;28;20064;-65
2022/05/05 06:00:56;;;;;;;15.23;8.48;;;;;;;13.48;87.66;101139.75;5033332;28;20045;-65
2022/05/05 06:06:09;;;;;;;14.18;8.95;;;;;;;13.62;86.26;101147.66;5052512;28;20048;-66
2022/05/05 06:08:36;;;;;;;17.15;8.90;;;;;;;13.57;86.00;101149.75;5052244;28;20048;-66
2022/05/05 06:11:03;;;;;;;19.50;9.20;;;;;;;13.49;85.43;101165.25;5048483;28;20517;-66
2022/05/05 06:13:31;;;;;;;13.25;8.60;;;;;;;13.35;84.85;101163.47;5056662;28;20072;-66
2022/05/05 06:15:58;;;;;;;13.80;8.68;;;;;;;13.35;85.72;101162.63;5048785;28;20052;-65
2022/05/05 06:18:25;;;;;;;14.98;9.30;;;;;;;13.33;85.53;101169.81;5050221;28;20048;-65
2022/05/05 06:20:53;;;;;;;19.00;8.85;;;;;;;13.41;85.44;101168.38;5047291;28;20052;-65
2022/05/05 06:23:20;;;;;;;17.60;8.30;;;;;;;13.55;85.81;101150.78;5058437;28;20532;-65
2022/05/05 06:25:47;;;;;;;17.33;8.45;;;;;;;13.68;83.61;101157.84;5046382;28;20501;-65
2022/05/05 06:28:15;;;;;;;14.95;8.52;;;;;;;13.72;83.54;101162.97;5052449;28;20049;-65
2022/05/05 06:30:42;;;;;;;16.42;8.35;;;;;;;13.84;82.41;101156.91;5052052;28;20155;-65
2022/05/05 06:33:09;;;;;;;14.55;8.63;;;;;;;14.04;81.70;101160.88;5051281;28;20048;-65
2022/05/05 06:35:36;;;;;;;16.52;8.27;;;;;;;14.29;80.76;101163.63;5046771;28;20525;-66
2022/05/05 06:38:04;;;;;;;18.73;7.90;;;;;;;14.62;79.48;101167.66;5052792;28;20053;-65
2022/05/05 06:40:31;;;;;;;14.52;8.23;;;;;;;15.08;77.70;101162.72;5050675;28;20064;-66
2022/05/05 06:42:58;;;;;;;14.85;8.20;;;;;;;15.38;75.83;101167.69;5050517;28;20045;-66
2022/05/05 06:45:26;;;;;;;18.35;8.35;;;;;;;15.47;74.40;101170.66;5048531;28;20563;-66
2022/05/05 06:47:54;;;;;;;13.00;7.95;;;;;;;15.48;73.29;101180.31;5033128;28;20063;-66
2022/05/05 06:50:21;;;;;;;14.63;7.53;;;;;;;15.45;73.20;101181.41;5047241;28;20060;-66
2022/05/05 06:52:49;;;;;;;13.63;7.78;;;;;;;15.37;73.28;101183.75;5048916;28;20253;-65
2022/05/05 06:55:17;;;;;;;11.80;8.30;;;;;;;15.35;74.10;101188.28;5053081;28;20053;-66
2022/05/05 06:57:46;;;;;;;13.52;7.38;;;;;;;15.43;72.95;101191.25;5031576;28;20064;-66
2022/05/05 07:00:13;;;;;;;17.20;7.95;;;;;;;15.54;73.65;101190.53;5048138;28;20041;-65
2022/05/05 07:02:40;;;;;;;12.57;7.72;;;;;;;15.83;72.13;101193.78;5074487;22;20048;-62
2022/05/05 07:05:23;;;;;;;16.95;7.13;;;;;;;15.82;71.86;101200.03;5040083;28;20053;-62
2022/05/05 07:07:51;;;;;;;18.05;8.13;;;;;;;15.74;70.74;101205.88;5024905;28;20057;-63
2022/05/05 07:13:04;;;;;;;12.70;7.22;;;;;;;15.39;73.32;101209.19;5034824;28;20042;-63
2022/05/05 07:15:32;;;;;;;14.15;7.93;;;;;;;15.38;72.54;101209.31;5023389;28;20049;-63
2022/05/05 07:17:59;;;;;;;14.35;7.97;;;;;;;15.56;71.76;101210.66;5039817;28;20041;-63
2022/05/05 07:20:26;;;;;;;17.40;8.13;;;;;;;15.76;70.66;101209.31;5028659;28;20505;-63
2022/05/05 07:22:53;;;;;;;12.88;7.68;;;;;;;16.00;69.13;101214.66;5029427;28;20053;-63
2022/05/05 07:25:21;;;;;;;16.73;7.13;;;;;;;15.78;70.15;101214.50;5041060;28;20045;-62
2022/05/05 07:27:49;;;;;;;12.55;8.27;;;;;;;15.88;69.89;101220.84;5011044;28;20417;-62
2022/05/05 07:30:16;;;;;;;13.60;8.02;;;;;;;15.83;71.76;101225.63;5020224;28;20429;-62
2022/05/05 07:32:43;;;;;;;18.23;8.50;;;;;;;15.86;70.26;101228.06;5011820;28;20525;-62
2022/05/05 07:35:13;;;;;;;14.05;7.80;;;;;;;15.79;71.09;101232.97;5032612;28;20053;-62
2022/05/05 07:37:40;;;;;;;14.23;7.43;;;;;;;15.78;71.05;101230.41;5025379;28;20068;-62
2022/05/05 07:40:08;;;;;;;15.20;7.20;;;;;;;15.82;70.45;101237.22;5029210;28;20049;-60
2022/05/05 07:42:41;;;;;;;13.20;7.60;;;;;;;15.95;70.22;101243.34;5031611;28;20467;-62
2022/05/05 07:45:08;;;;;;;15.73;7.57;;;;;;;15.77;70.97;101239.34;5034978;28;20056;-62
2022/05/05 07:47:36;;;;;;;9.68;7.60;;;;;;;15.67;70.47;101237.34;5025677;28;20055;-62
2022/05/05 07:50:05;;;;;;;12.50;7.43;;;;;;;15.41;69.94;101244.44;5036433;28;20061;-61
2022/05/05 07:52:32;;;;;;;13.80;7.60;;;;;;;15.25;71.55;101245.59;5026412;28;20055;-61
2022/05/05 07:54:59;;;;;;;12.45;8.27;;;;;;;15.13;72.11;101244.63;5034924;28;20513;-62
2022/05/05 07:57:26;;;;;;;19.25;8.18;;;;;;;15.04;73.15;101242.59;5026026;28;20502;-62
2022/05/05 07:59:53;;;;;;;12.65;7.72;;;;;;;14.86;73.54;101247.31;5036861;28;20071;-62
2022/05/05 08:02:21;;;;;;;19.17;8.45;;;;;;;14.90;74.02;101244.41;5010893;28;20049;-61
2022/05/05 08:04:48;;;;;;;15.27;7.85;;;;;;;15.15;73.17;101240.06;5031909;28;20535;-61
2022/05/05 08:07:15;;;;;;;16.05;8.15;;;;;;;15.46;72.11;101249.44;5039837;28;20049;-61
2022/05/05 08:09:42;;;;;;;12.95;8.02;;;;;;;15.79;71.36;101245.38;5034047;28;20068;-62
2022/05/05 08:12:27;;;;;;;14.18;7.80;;;;;;;15.91;70.01;101252.50;5021496;28;20058;-62
2022/05/05 08:14:55;;;;;;;9.15;7.22;;;;;;;15.98;69.42;101250.22;5037898;28;20061;-62
2022/05/05 08:17:22;;;;;;;13.10;8.40;;;;;;;16.11;68.88;101249.22;5029761;28;20068;-62
2022/05/05 08:19:50;;;;;;;14.30;8.90;;;;;;;16.04;68.79;101245.34;5039700;28;20045;-62
2022/05/05 08:22:17;;;;;;;15.05;7.30;;;;;;;16.16;67.40;101255.06;5035316;28;20076;-61
2022/05/05 08:30:17;;;;;;;;;;;;;;;16.49;66.46;101255.38;5031811;28;20060;-63
2022/05/05 08:32:44;;;;;;;12.48;6.78;;;;;;;16.58;66.28;101246.72;5029352;28;20262;-64
2022/05/05 08:35:11;;;;;;;11.10;7.05;;;;;;;16.76;65.92;101248.06;5024615;28;20398;-63
2022/05/05 08:37:39;;;;;;;11.15;7.40;;;;;;;16.87;64.84;101252.56;5027041;28;20061;-63
2022/05/05 08:40:07;;;;;;;11.75;7.85;;;;;;;16.89;63.89;101251.50;5020248;28;20080;-64
2022/05/05 08:42:35;;;;;;;12.48;6.72;;;;;;;17.06;63.30;101252.84;5026500;28;20422;-63
2022/05/05 08:45:02;;;;;;;13.00;7.60;;;;;;;17.32;63.02;101260.66;5026326;28;20072;-63
2022/05/05 08:47:31;;;;;;;9.73;6.57;;;;;;;17.50;62.36;101261.03;5027351;28;20053;-63
2022/05/05 08:49:59;;;;;;;11.48;7.07;;;;;;;17.71;61.65;101262.88;5029255;28;20605;-62
2022/05/05 08:52:34;;;;;;;8.48;6.15;;;;;;;18.22;59.86;101257.03;5031272;28;21094;-63
2022/05/05 08:55:03;;;;;;;10.23;6.37;;;;;;;18.56;58.46;101261.44;5025193;28;20054;-63
2022/05/05 08:57:30;;;;;;;12.15;5.75;;;;;;;18.72;57.65;101252.06;5010045;28;20061;-64
2022/05/05 08:59:57;;;;;;;12.57;5.40;;;;;;;19.05;56.43;101252.00;5027233;28;20421;-64
2022/05/05 09:02:24;;;;;;;10.32;6.45;;;;;;;18.99;55.14;101253.38;5032290;28;20048;-64
2022/05/05 09:04:52;;;;;;;8.63;6.18;;;;;;;18.63;55.56;101255.47;5027549;28;20610;-65
2022/05/05 09:07:19;;;;;;;13.45;6.13;;;;;;;18.38;56.67;101259.31;5026925;28;20053;-63
2022/05/05 09:09:49;;;;;;;12.55;6.57;;;;;;;18.36;57.23;101268.38;5030062;28;20367;-62
2022/05/05 09:12:18;;;;;;;12.60;5.80;;;;;;;18.50;56.57;101252.09;5031506;28;20359;-63
2022/05/05 09:14:47;;;;;;;14.52;5.90;;;;;;;18.43;56.76;101257.13;5030054;28;20080;-64
2022/05/05 09:17:16;;;;;;;9.23;5.70;;;;;;;18.88;56.18;101253.47;5029790;28;20053;-63
2022/05/05 09:19:46;;;;;;;9.90;5.40;;;;;;;19.23;54.22;101266.50;5010512;28;20060;-64
2022/05/05 09:22:14;;;;;;;9.63;5.25;;;;;;;19.33;53.60;101270.06;5026353;28;20057;-63
2022/05/05 09:24:43;;;;;;;10.55;5.50;;;;;;;19.24;53.47;101262.84;5016066;28;20057;-63
2022/05/05 09:27:15;;;;;;;12.63;6.63;;;;;;;19.42;53.49;101263.09;5021958;28;20052;-63
2022/05/05 09:30:02;;;;;;;10.38;6.15;;;;;;;19.18;53.72;101264.22;5037686;28;20056;-63
2022/05/05 09:32:31;;;;;;;13.77;5.20;;;;;;;19.31;55.30;101272.00;5032311;28;20037;-63
2022/05/05 09:35:02;;;;;;;8.77;4.88;;;;;;;19.67;53.36;101277.84;5043386;28;20083;-63
2022/05/05 09:37:30;;;;;;;12.20;5.95;;;;;;;20.00;51.53;101275.91;5026315;28;20052;-63
2022/05/05 09:40:02;;;;;;;9.32;5.07;;;;;;;19.82;50.45;101279.19;5032917;28;20049;-63
2022/05/05 09:42:45;;;;;;;10.32;5.43;;;;;;;19.97;50.26;101282.34;5027600;28;20125;-64
2022/05/05 09:45:16;;;;;;;7.50;4.72;;;;;;;20.18;48.96;101283.13;5031250;28;20205;-63
2022/05/05 09:47:47;;;;;;;11.27;5.60;;;;;;;19.92;49.82;101281.91;5033164;28;20060;-63
2022/05/05 09:50:14;;;;;;;13.50;5.22;;;;;;;19.78;49.40;101295.63;5038659;28;20509;-63
2022/05/05 09:58:17;;;;;;;10.68;5.65;;;;;;;20.23;46.84;101291.56;5035353;28;20096;-63
2022/05/05 10:00:53;;;;;;;7.85;4.35;;;;;;;20.23;47.70;101288.91;5032717;28;20058;-63
2022/05/05 10:06:35;;;;;;;8.32;4.65;;;;;;;20.79;48.29;101302.66;5033547;28;20087;-63
2022/05/05 10:09:10;;;;;;;11.55;4.63;;;;;;;21.14;48.32;101302.09;5032653;28;20061;-62
2022/05/05 10:11:39;;;;;;;10.07;4.93;;;;;;;21.56;45.91;101299.09;5027643;28;20050;-63
2022/05/05 10:14:10;;;;;;;11.45;5.05;;;;;;;21.43;45.17;101299.41;5037271;28;20311;-63
2022/05/05 10:16:38;;;;;;;10.63;4.78;;;;;;;20.88;44.27;101304.50;5004580;28;20065;-63
2022/05/05 10:19:06;;;;;;;9.27;4.38;;;;;;;21.04;44.97;101309.31;5033236;28;20466;-62
2022/05/05 10:21:52;;;;;;;11.30;4.05;;;;;;;21.61;44.74;101299.50;5028570;28;20060;-62
2022/05/05 10:24:19;;;;;;;;;;;;;;;21.94;43.18;101307.00;5014476;28;20309;-62
2022/05/05 10:26:51;;;;;;;8.85;4.75;;;;;;;21.43;43.13;101299.41;5031038;28;19921;-63
2022/05/05 10:29:30;;;;;;;7.20;4.40;;;;;;;21.19;44.87;101298.00;5017437;28;20053;-63
2022/05/05 10:32:10;;;;;;;10.55;5.35;;;;;;;20.93;45.20;101303.09;5025617;28;20057;-63
2022/05/05 10:34:42;;;;;;;9.90;4.70;;;;;;;20.97;44.38;101304.50;5023441;28;20057;-63
2022/05/05 10:37:12;;;;;;;10.15;5.03;;;;;;;21.39;45.11;101314.06;5013861;28;20054;-64
2022/05/05 10:39:47;;;;;;;11.23;4.72;;;;;;;21.45;42.25;101308.16;5025604;28;20371;-63
2022/05/05 10:42:38;;;;;;;10.75;4.65;;;;;;;21.45;42.63;101309.00;5024809;28;20053;-63
2022/05/05 10:45:19;;;;;;;12.27;4.55;;;;;;;21.58;42.14;101308.69;5032105;28;20560;-62
2022/05/05 10:47:57;;;;;;;11.05;5.25;;;;;;;22.17;41.58;101302.13;5023876;28;20058;-64
2022/05/05 10:50:31;;;;;;;9.68;4.20;;;;;;;22.65;41.21;101297.44;5027238;28;20144;-63
2022/05/05 10:52:59;;;;;;;11.17;3.90;;;;;;;22.79;40.41;101296.94;5034681;28;20072;-63
2022/05/05 10:55:35;;;;;;;9.65;4.57;;;;;;;22.31;41.13;101307.97;5030710;28;20107;-63
2022/05/05 10:59:00;;;;;;;14.50;5.20;;;;;;;21.73;41.28;101309.91;5015028;28;20057;-62
2022/05/05 11:01:29;;;;;;;13.77;5.43;;;;;;;21.47;42.11;101304.31;5027926;28;20068;-63
2022/05/05 11:04:07;;;;;;;12.77;4.80;;;;;;;21.60;42.96;101309.38;5022320;28;20110;-63
2022/05/05 11:06:38;;;;;;;10.95;4.97;;;;;;;21.94;42.21;101314.22;5021999;28;20705;-64
2022/05/05 11:09:05;;;;;;;10.10;4.65;;;;;;;22.10;42.66;101309.03;5006587;28;20528;-63
2022/05/05 11:11:41;;;;;;;13.45;5.32;;;;;;;22.18;42.15;101317.22;5031618;28;20076;-63
2022/05/05 11:23:00;;;;;;;11.45;4.80;;;;;;;21.53;43.16;101307.44;5012705;28;20061;-54
2022/05/05 11:25:27;;;;;;;12.25;4.93;;;;;;;21.99;41.70;101315.44;5021850;28;20065;-59
2022/05/05 11:27:56;;;;;;;9.25;4.22;;;;;;;22.50;41.16;101313.22;4996663;28;20049;-58
2022/05/05 11:30:23;;;;;;;11.20;4.88;;;;;;;22.50;40.83;101313.22;5026568;28;20620;-56
2022/05/05 11:32:51;;;;;;;11.15;4.20;;;;;;;22.60;40.46;101313.16;5025802;28;20057;-55
2022/05/05 11:35:38;;;;;;;11.25;4.65;;;;;;;23.00;39.93;101299.31;5028514;28;20045;-58
2022/05/05 11:38:11;;;;;;;11.38;4.45;;;;;;;23.77;39.08;101313.81;5022634;28;20083;-57
2022/05/05 11:40:38;;;;;;;13.05;4.47;;;;;;;23.54;38.00;101321.53;5029503;28;20049;-58
2022/05/05 11:45:54;;;;;;;12.98;5.35;;;;;;;22.45;37.24;101327.09;5033969;28;20448;-57
2022/05/05 11:48:21;;;;;;;8.38;3.70;;;;;;;22.25;39.07;101328.22;5029603;28;20099;-57
2022/05/05 11:51:06;;;;;;;12.27;4.78;;;;;;;22.12;38.49;101323.19;5022559;28;20068;-58
2022/05/05 11:53:35;;;;;;;8.05;4.38;;;;;;;22.05;38.77;101319.38;5030472;28;20041;-59
2022/05/05 11:56:03;;;;;;;12.90;4.95;;;;;;;21.59;39.62;101314.88;5033204;28;20060;-58
2022/05/05 12:01:40;;;;;;;10.02;5.13;;;;;;;20.93;40.33;101320.97;5023899;28;20053;-58
2022/05/05 12:04:09;;;;;;;17.98;5.60;;;;;;;20.84;40.20;101320.00;5029267;28;20049;-58
2022/05/05 12:06:38;;;;;;;13.32;5.18;;;;;;;20.48;40.67;101316.97;5030198;28;20145;-59
2022/05/05 12:09:07;;;;;;;8.07;4.60;;;;;;;20.22;41.28;101305.09;5018608;28;20068;-57
2022/05/05 12:11:35;;;;;;;9.88;4.90;;;;;;;20.18;41.64;101314.38;5024652;28;20476;-58
2022/05/05 12:14:06;;;;;;;11.52;4.55;;;;;;;20.41;42.01;101315.00;5028826;28;20410;-60